createdAt,value
2022-11-03T09:11:33.642Z,99094.19
2022-11-03T09:14:06.534Z,99093.94
2022-11-03T09:16:38.813Z,99092.19
2022-11-03T09:19:11.134Z,99089.22
2022-11-03T09:21:44.571Z,99087.84
2022-11-03T09:24:16.955Z,99091.50
2022-11-03T09:26:55.143Z,99080.53
2022-11-03T09:29:51.625Z,99086.84
2022-11-03T09:32:24.661Z,99084.88
2022-11-03T09:34:57.428Z,99078.84
2022-11-03T09:37:31.323Z,99082.53
2022-11-03T10:04:04.621Z,99061.50
2022-11-03T10:17:08.032Z,99060.72
2022-11-03T10:19:55.487Z,99053.28
2022-11-03T10:23:21.477Z,99057.41
2022-11-03T10:26:01.033Z,99051.09
2022-11-03T10:29:00.861Z,99057.97
2022-11-03T10:33:31.961Z,99059.91
2022-11-03T10:36:11.524Z,99054.41
2022-11-03T10:38:53.600Z,99050.00
2022-11-03T10:41:33.946Z,99052.22
2022-11-03T10:44:21.464Z,99040.66
2022-11-03T10:47:04.793Z,99049.47
2022-11-03T10:49:43.900Z,99053.06
2022-11-03T10:52:26.184Z,99053.06
2022-11-03T10:55:09.486Z,99048.94
2022-11-03T10:58:16.465Z,99037.66
2022-11-03T11:00:50.481Z,99042.84
2022-11-03T11:03:23.778Z,99031.84
2022-11-03T11:05:59.089Z,99035.16
2022-11-03T11:08:35.934Z,99042.03
2022-11-03T11:11:12.892Z,99035.69
2022-11-03T11:13:45.734Z,99037.63
2022-11-03T11:16:52.661Z,99037.34
2022-11-03T11:19:35.589Z,99040.59
2022-11-03T11:22:20.095Z,99038.34
2022-11-03T11:25:09.488Z,99042.75
2022-11-03T11:28:00.277Z,99049.00
2022-11-03T11:31:08.046Z,99042.19
2022-11-03T11:33:44.841Z,99051.81
2022-11-03T11:36:31.823Z,99050.69
2022-11-03T11:39:06.926Z,99053.19
2022-11-03T11:42:16.262Z,99048.19
2022-11-03T11:45:08.901Z,99053.66
2022-11-03T11:47:57.486Z,99048.72
2022-11-03T11:50:38.600Z,99056.41
2022-11-03T11:53:31.964Z,99052.81
2022-11-03T11:56:07.151Z,99054.72
2022-11-03T11:58:47.655Z,99055.00
2022-11-03T12:01:29.914Z,99061.31
2022-11-03T12:04:09.724Z,99068.44
2022-11-03T12:09:24.532Z,99065.53
2022-11-03T12:12:06.867Z,99070.97
2022-11-03T12:14:44.847Z,99078.53
2022-11-03T12:17:39.056Z,99074.19
2022-11-03T12:20:39.029Z,99085.19
2022-11-03T12:23:14.085Z,99085.66
2022-11-03T12:25:48.264Z,99086.84
2022-11-03T12:28:39.289Z,99090.63
2022-11-03T12:31:15.747Z,99091.91
2022-11-03T12:33:47.477Z,99094.88
2022-11-03T12:36:19.867Z,99102.75
2022-11-03T12:38:52.803Z,99097.97
2022-11-03T12:41:25.950Z,99110.09
2022-11-03T12:44:00.170Z,99104.28
2022-11-03T12:46:32.579Z,99113.00
2022-11-03T12:49:04.718Z,99110.63
2022-11-03T12:51:36.571Z,99118.03
2022-11-03T12:54:09.358Z,99118.06
2022-11-03T12:56:41.519Z,99120.03
2022-11-03T12:59:15.234Z,99122.44
2022-11-03T13:01:47.355Z,99122.09
2022-11-03T13:04:19.896Z,99129.28
2022-11-03T13:06:52.107Z,99124.59
2022-11-03T13:09:25.482Z,99130.16
2022-11-03T13:12:14.385Z,99138.31
2022-11-03T13:14:48.748Z,99143.19
2022-11-03T13:17:21.049Z,99143.22
2022-11-03T13:19:54.773Z,99151.50
2022-11-03T13:22:26.941Z,99157.59
2022-11-03T13:24:59.330Z,99152.13
2022-11-03T13:27:32.587Z,99153.78
2022-11-03T13:30:06.378Z,99156.53
2022-11-03T13:32:38.733Z,99170.88
2022-11-03T13:35:13.913Z,99167.78
2022-11-03T13:37:47.042Z,99170.00
2022-11-03T13:43:13.165Z,99166.16
2022-11-03T13:45:46.940Z,99174.66
2022-11-03T13:51:13.600Z,99182.75
2022-11-03T13:59:31.442Z,99188.03
2022-11-03T14:05:11.848Z,99191.88
2022-11-03T14:07:43.929Z,99188.34
2022-11-03T14:10:17.599Z,99203.16
2022-11-03T14:12:49.555Z,99206.09
2022-11-03T14:15:22.075Z,99210.91
2022-11-03T14:17:55.882Z,99214.44
2022-11-03T14:23:05.620Z,99221.94
2022-11-03T14:25:37.736Z,99226.16
2022-11-03T14:28:10.855Z,99230.19
2022-11-03T14:30:42.963Z,99228.72
2022-11-03T14:33:16.521Z,99237.16
2022-11-03T14:35:51.075Z,99239.84
2022-11-03T14:38:23.298Z,99239.59
2022-11-03T14:41:12.152Z,99246.16
2022-11-03T14:43:44.622Z,99245.00
2022-11-03T14:46:17.099Z,99253.25
2022-11-03T14:48:50.802Z,99255.09
2022-11-03T14:51:28.097Z,99267.31
2022-11-03T14:54:01.140Z,99265.22
2022-11-03T14:56:33.894Z,99258.88
2022-11-03T14:59:21.381Z,99256.91
2022-11-03T15:01:54.810Z,99262.91
2022-11-03T15:04:29.862Z,99266.97
2022-11-03T15:07:02.894Z,99271.00
2022-11-03T15:09:39.192Z,99277.09
2022-11-03T15:12:16.606Z,99271.63
2022-11-03T15:14:51.261Z,99277.34
2022-11-03T15:17:26.499Z,99282.63
2022-11-03T15:20:02.234Z,99266.44
2022-11-03T15:25:32.241Z,99282.78
2022-11-03T15:28:13.225Z,99281.72
2022-11-03T15:30:46.494Z,99288.50
2022-11-03T15:33:19.779Z,99280.56
2022-11-03T15:35:55.590Z,99285.44
2022-11-03T15:38:30.195Z,99286.50
2022-11-03T15:41:16.483Z,99288.75
2022-11-03T15:43:52.515Z,99296.38
2022-11-03T15:46:26.270Z,99291.50
2022-11-03T15:48:59.074Z,99302.44
2022-11-03T15:51:34.520Z,99307.97
2022-11-03T15:54:07.458Z,99304.72
2022-11-03T15:56:39.918Z,99310.44
2022-11-03T15:59:22.561Z,99314.13
2022-11-03T16:02:03.645Z,99311.13
2022-11-03T16:04:48.448Z,99308.59
2022-11-03T16:07:23.678Z,99313.59
2022-11-03T16:09:58.329Z,99315.47
2022-11-03T16:12:33.640Z,99319.28
2022-11-03T16:15:07.716Z,99322.75
2022-11-03T16:17:45.350Z,99315.84
2022-11-03T16:20:20.787Z,99322.38
2022-11-03T16:22:59.386Z,99324.06
2022-11-03T16:25:33.047Z,99329.78
2022-11-03T16:28:08.166Z,99325.13
2022-11-03T16:30:41.922Z,99320.03
2022-11-03T16:33:15.911Z,99332.66
2022-11-03T16:35:49.158Z,99331.94
2022-11-03T16:38:30.168Z,99329.19
2022-11-03T16:41:02.721Z,99327.44
2022-11-03T16:43:35.169Z,99330.38
2022-11-03T16:46:08.133Z,99330.50
2022-11-03T16:48:40.236Z,99330.25
2022-11-03T16:51:12.740Z,99327.88
2022-11-03T16:53:50.500Z,99327.09
2022-11-03T16:56:24.282Z,99334.63
2022-11-03T16:58:56.302Z,99326.50
2022-11-03T17:01:28.877Z,99335.03
2022-11-03T17:04:01.666Z,99334.91
2022-11-03T17:06:34.232Z,99329.06
2022-11-03T17:09:08.930Z,99324.47
2022-11-03T17:11:44.222Z,99335.16
2022-11-03T17:14:17.073Z,99336.00
2022-11-03T17:16:50.231Z,99330.41
2022-11-03T17:19:22.305Z,99334.13
2022-11-03T17:21:56.575Z,99325.81
2022-11-03T17:24:30.686Z,99322.56
2022-11-03T17:27:11.403Z,99324.41
2022-11-03T17:29:53.663Z,99319.75
2022-11-03T17:32:31.951Z,99317.28
2022-11-03T17:35:04.438Z,99315.94
2022-11-03T17:37:39.055Z,99311.06
2022-11-03T17:40:19.731Z,99313.69
2022-11-03T17:42:53.585Z,99311.22
2022-11-03T17:45:27.906Z,99308.34
2022-11-03T17:48:00.378Z,99307.50
2022-11-03T17:50:34.919Z,99305.38
2022-11-03T17:53:09.666Z,99302.41
2022-11-03T17:55:53.178Z,99308.00
2022-11-03T17:58:46.525Z,99302.16
2022-11-03T18:01:26.588Z,99301.34
2022-11-03T18:03:58.344Z,99303.00
2022-11-03T18:06:30.764Z,99292.31
2022-11-03T18:09:03.070Z,99290.88
2022-11-03T18:11:57.828Z,99294.69
2022-11-03T18:14:32.453Z,99290.19
2022-11-03T18:17:06.867Z,99288.63
2022-11-03T18:19:39.192Z,99286.38
2022-11-03T18:22:13.190Z,99291.84
2022-11-03T18:24:46.375Z,99286.25
2022-11-03T18:27:24.978Z,99286.78
2022-11-03T18:29:57.802Z,99283.66
2022-11-03T18:32:35.678Z,99282.53
2022-11-03T18:35:10.851Z,99278.19
2022-11-03T18:37:45.719Z,99287.09
2022-11-03T18:40:20.371Z,99285.22
2022-11-03T18:42:54.567Z,99290.19
2022-11-03T18:45:27.428Z,99281.31
2022-11-03T18:47:59.465Z,99282.59
2022-11-03T18:50:31.999Z,99292.13
2022-11-03T18:53:04.206Z,99283.19
2022-11-03T18:55:37.017Z,99279.50
2022-11-03T18:58:18.895Z,99286.22
2022-11-03T19:00:50.891Z,99278.38
2022-11-03T19:03:24.235Z,99275.47
2022-11-03T19:05:57.243Z,99284.53
2022-11-03T19:08:32.069Z,99282.59
2022-11-03T19:11:05.242Z,99274.66
2022-11-03T19:13:41.616Z,99282.66
2022-11-03T19:16:18.908Z,99276.56
2022-11-03T19:18:51.740Z,99277.88
2022-11-03T19:21:24.958Z,99276.06
2022-11-03T19:23:58.505Z,99272.28
2022-11-03T19:26:35.139Z,99273.25
2022-11-03T19:29:14.721Z,99271.91
2022-11-03T19:31:50.319Z,99265.78
2022-11-03T19:34:25.545Z,99269.91
2022-11-03T19:36:58.165Z,99265.88
2022-11-03T19:39:34.336Z,99259.59
2022-11-03T19:42:32.412Z,99263.63
2022-11-03T19:45:08.198Z,99266.59
2022-11-03T19:47:57.710Z,99259.13
2022-11-03T19:50:37.405Z,99259.41
2022-11-03T19:53:10.917Z,99258.16
2022-11-03T19:55:46.495Z,99255.56
2022-11-03T19:58:20.890Z,99257.34
2022-11-03T20:00:54.952Z,99244.75
2022-11-03T20:03:28.298Z,99250.59
2022-11-03T20:06:01.425Z,99243.72
2022-11-03T20:08:35.843Z,99240.13
2022-11-03T20:11:10.209Z,99243.81
2022-11-03T20:13:46.075Z,99237.63
2022-11-03T20:16:22.416Z,99242.16
2022-11-03T20:18:56.250Z,99236.22
2022-11-03T20:21:34.218Z,99237.53
2022-11-03T20:24:08.175Z,99240.50
2022-11-03T20:26:41.639Z,99234.31
2022-11-03T20:29:18.703Z,99236.81
2022-11-03T20:31:54.137Z,99243.09
2022-11-03T20:34:26.096Z,99240.47
2022-11-03T20:37:01.456Z,99238.72
2022-11-03T20:39:41.392Z,99233.25
2022-11-03T20:42:21.543Z,99244.31
2022-11-03T20:44:54.164Z,99240.25
2022-11-03T20:47:30.121Z,99248.44
2022-11-03T20:50:02.257Z,99242.38
2022-11-03T20:52:34.433Z,99238.59
2022-11-03T20:55:06.751Z,99237.63
2022-11-03T20:57:39.343Z,99238.03
2022-11-03T21:00:16.033Z,99234.59
2022-11-03T21:02:51.041Z,99230.84
2022-11-03T21:05:25.274Z,99231.56
2022-11-03T21:07:58.475Z,99237.16
2022-11-03T21:10:30.967Z,99234.88
2022-11-03T21:13:02.935Z,99231.91
2022-11-03T21:16:18.251Z,99231.09
2022-11-03T21:19:02.910Z,99231.97
2022-11-03T21:21:35.840Z,99227.88
2022-11-03T21:24:08.753Z,99229.31
2022-11-03T21:26:43.405Z,99224.91
2022-11-03T21:29:27.462Z,99221.13
2022-11-03T21:32:05.539Z,99224.25
2022-11-03T21:34:39.640Z,99224.88
2022-11-03T21:37:15.835Z,99235.63
2022-11-03T21:39:48.874Z,99235.25
2022-11-03T21:42:37.309Z,99240.38
2022-11-03T21:45:10.667Z,99244.50
2022-11-03T21:48:02.850Z,99245.25
2022-11-03T21:50:35.412Z,99245.34
2022-11-03T21:53:08.601Z,99247.22
2022-11-03T21:55:41.047Z,99256.25
2022-11-03T21:58:13.523Z,99256.00
2022-11-03T22:00:47.241Z,99252.84
2022-11-03T22:03:19.563Z,99246.66
2022-11-03T22:05:53.095Z,99249.97
2022-11-03T22:08:25.981Z,99253.22
2022-11-03T22:11:22.807Z,99250.50
2022-11-03T22:13:57.104Z,99254.16
2022-11-03T22:16:42.205Z,99259.22
2022-11-03T22:19:33.293Z,99256.06
2022-11-03T22:22:26.021Z,99254.50
2022-11-03T22:25:15.304Z,99266.19
2022-11-03T22:27:48.044Z,99258.31
2022-11-03T22:30:37.308Z,99260.78
2022-11-03T22:33:10.013Z,99260.06
2022-11-03T22:35:59.922Z,99259.72
2022-11-03T22:38:47.239Z,99257.34
2022-11-03T22:41:36.099Z,99264.06
2022-11-03T22:44:26.162Z,99255.72
2022-11-03T22:46:57.321Z,99264.63
2022-11-03T22:49:29.798Z,99259.16
2022-11-03T22:52:02.334Z,99260.94
2022-11-03T22:54:36.131Z,99261.81
2022-11-03T22:57:09.222Z,99256.63
2022-11-03T22:59:41.757Z,99263.28
2022-11-03T23:02:14.270Z,99256.50
2022-11-03T23:04:46.216Z,99271.84
2022-11-03T23:07:18.239Z,99262.69
2022-11-03T23:09:52.750Z,99264.38
2022-11-03T23:12:24.727Z,99269.94
2022-11-03T23:15:14.138Z,99261.53
2022-11-03T23:18:02.440Z,99280.00
2022-11-03T23:20:51.895Z,99286.63
2022-11-03T23:23:40.742Z,99281.72
2022-11-03T23:26:14.756Z,99281.97
2022-11-03T23:28:47.716Z,99289.94
2022-11-03T23:31:19.715Z,99288.22
2022-11-03T23:33:51.855Z,99297.81
2022-11-03T23:36:25.109Z,99296.59
2022-11-03T23:38:58.419Z,99292.91
2022-11-03T23:41:33.129Z,99296.63
2022-11-03T23:44:05.701Z,99308.91
2022-11-03T23:46:54.198Z,99319.84
2022-11-03T23:49:26.544Z,99319.03
2022-11-03T23:51:58.802Z,99330.00
2022-11-03T23:54:31.100Z,99334.56
2022-11-03T23:57:21.495Z,99342.91
2022-11-03T23:59:53.343Z,99345.72
